Time;durP1;ratioP1;P1;durP2;ratioP2;P2;SDS_P1;SDS_P2;PMS_P1;PMS_P2;Temp;Humidity;BMP_temperature;BMP_pressure;BME280_temperature;BME280_humidity;BME280_pressure;Samples;Min_cycle;Max_cycle;Signal;HPM_P1;HPM_P2
2023/10/07 00:00:49;;;;;;;4.00;2.28;;;;;;;16.07;41.82;101846.56;5053965;28;20303;-84
2023/10/07 00:03:17;;;;;;;4.50;2.53;;;;;;;16.06;41.50;101843.94;5040408;28;20059;-81
2023/10/07 00:05:47;;;;;;;5.65;2.78;;;;;;;16.05;41.80;101850.47;5038438;28;20071;-82
2023/10/07 00:08:19;;;;;;;5.90;2.45;;;;;;;16.05;41.61;101839.44;5054482;28;20045;-81
2023/10/07 00:10:49;;;;;;;5.00;2.60;;;;;;;16.04;41.64;101846.84;5037229;28;20114;-83
2023/10/07 00:13:20;;;;;;;3.80;2.40;;;;;;;16.04;41.51;101857.00;5040029;28;21352;-82
2023/10/07 00:15:51;;;;;;;6.15;3.00;;;;;;;16.03;41.39;101852.50;5036918;28;20108;-81
2023/10/07 00:18:22;;;;;;;5.13;2.72;;;;;;;16.01;41.39;101847.13;5037236;28;20043;-82
2023/10/07 00:20:53;;;;;;;5.90;2.70;;;;;;;16.02;41.45;101848.00;5057352;28;20049;-82
2023/10/07 00:23:22;;;;;;;4.75;2.55;;;;;;;15.99;41.53;101849.19;5056228;28;20440;-82
2023/10/07 00:25:51;;;;;;;3.85;2.40;;;;;;;16.01;41.45;101846.25;5038265;28;20083;-82
2023/10/07 00:28:28;;;;;;;6.47;2.70;;;;;;;16.00;41.70;101847.28;5037500;28;20052;-82
2023/10/07 00:31:02;;;;;;;5.13;2.70;;;;;;;15.97;41.53;101851.22;5054532;28;20711;-81
2023/10/07 00:33:45;;;;;;;4.40;2.30;;;;;;;15.97;41.65;101856.72;5039574;28;20050;-81
2023/10/07 00:36:16;;;;;;;5.65;2.53;;;;;;;15.95;42.16;101858.75;5055016;28;20048;-82
2023/10/07 00:38:45;;;;;;;3.92;2.22;;;;;;;15.96;41.83;101851.34;5038650;28;20728;-82
2023/10/07 00:41:18;;;;;;;5.55;2.63;;;;;;;15.96;41.86;101849.47;5055003;28;20132;-82
2023/10/07 00:43:53;;;;;;;4.32;2.28;;;;;;;15.96;42.25;101849.47;5037632;28;20057;-83
2023/10/07 00:46:28;;;;;;;7.10;2.38;;;;;;;15.93;42.25;101849.75;5056226;28;20057;-83
2023/10/07 00:48:59;;;;;;;5.78;2.50;;;;;;;15.94;42.10;101837.69;5041867;28;20048;-83
2023/10/07 00:51:34;;;;;;;4.45;2.40;;;;;;;15.94;42.30;101851.50;5045106;28;20075;-81
2023/10/07 00:54:16;;;;;;;6.13;2.42;;;;;;;15.92;42.13;101844.41;5048788;28;20045;-82
2023/10/07 00:56:50;;;;;;;5.43;2.70;;;;;;;15.89;41.89;101846.41;5046179;28;20049;-80
2023/10/07 00:59:20;;;;;;;5.65;2.55;;;;;;;15.93;42.32;101848.88;5041985;28;20077;-82
2023/10/07 01:01:50;;;;;;;4.82;2.50;;;;;;;15.90;42.51;101847.28;5039963;28;20686;-82
2023/10/07 01:04:20;;;;;;;5.78;2.45;;;;;;;15.91;42.30;101828.84;5045902;28;20052;-81
2023/10/07 01:06:48;;;;;;;5.05;2.67;;;;;;;15.91;42.37;101823.31;5042603;28;20068;-81
2023/10/07 01:09:22;;;;;;;4.75;2.25;;;;;;;15.88;42.17;101818.94;5040615;28;20137;-81
2023/10/07 01:11:57;;;;;;;3.83;2.22;;;;;;;15.89;42.24;101824.34;5038897;28;20100;-82
2023/10/07 01:14:29;;;;;;;5.47;2.88;;;;;;;15.90;42.21;101822.44;5052732;28;20544;-82
2023/10/07 01:17:00;;;;;;;5.28;2.95;;;;;;;15.86;42.26;101818.22;5036866;28;20505;-82
2023/10/07 01:19:30;;;;;;;3.70;1.92;;;;;;;15.87;42.20;101804.28;5036657;28;20061;-81
2023/10/07 01:22:09;;;;;;;5.80;2.60;;;;;;;15.86;42.77;101798.91;5037978;28;20105;-81
2023/10/07 01:24:45;;;;;;;5.20;2.65;;;;;;;15.87;42.82;101793.22;5037444;28;20045;-83
2023/10/07 01:27:35;;;;;;;4.97;2.75;;;;;;;15.86;42.45;101794.25;5052412;28;20068;-82
2023/10/07 01:30:13;;;;;;;6.72;2.50;;;;;;;15.84;42.67;101793.50;5038167;28;20111;-82
2023/10/07 01:32:49;;;;;;;5.10;2.50;;;;;;;15.84;42.90;101809.19;5034230;28;20049;-81
2023/10/07 01:35:25;;;;;;;5.75;2.20;;;;;;;15.83;43.01;101805.59;5052835;28;20048;-81
2023/10/07 01:37:59;;;;;;;5.25;2.40;;;;;;;15.83;42.79;101810.25;5038633;28;20053;-82
2023/10/07 01:40:44;;;;;;;6.55;2.75;;;;;;;15.83;42.88;101813.88;5036142;28;20465;-82
2023/10/07 01:43:12;;;;;;;6.88;2.85;;;;;;;15.80;42.63;101818.81;5037898;28;20033;-81
2023/10/07 01:45:40;;;;;;;5.60;2.40;;;;;;;15.80;43.18;101821.56;5034021;28;20072;-82
2023/10/07 01:48:08;;;;;;;5.60;2.60;;;;;;;15.78;42.95;101815.31;5050906;28;20125;-83
2023/10/07 01:50:40;;;;;;;5.30;2.28;;;;;;;15.81;43.25;101809.50;5037283;28;20056;-81
2023/10/07 01:53:08;;;;;;;4.37;2.23;;;;;;;15.73;43.27;101801.97;5053009;28;20129;-82
2023/10/07 01:55:42;;;;;;;4.88;2.42;;;;;;;15.77;43.14;101800.63;5036210;28;20064;-82
2023/10/07 01:58:13;;;;;;;5.75;2.50;;;;;;;15.75;42.83;101799.94;5034663;28;20037;-81
2023/10/07 02:00:46;;;;;;;5.57;2.75;;;;;;;15.74;42.95;101787.16;5036611;28;20249;-82
2023/10/07 02:03:16;;;;;;;5.78;2.60;;;;;;;15.70;43.42;101793.97;5033456;28;20049;-82
2023/10/07 02:05:48;;;;;;;4.63;2.42;;;;;;;15.71;43.26;101781.03;5052365;28;20053;-84
2023/10/07 02:08:20;;;;;;;4.20;2.22;;;;;;;15.69;43.11;101786.69;5036242;28;20041;-82
2023/10/07 02:10:52;;;;;;;4.18;2.38;;;;;;;15.72;43.41;101788.31;5037764;28;21121;-82
2023/10/07 02:13:21;;;;;;;4.60;2.60;;;;;;;15.67;43.30;101780.44;5051962;28;20091;-80
2023/10/07 02:15:51;;;;;;;5.15;2.58;;;;;;;15.68;43.09;101797.88;5040948;28;20144;-82
2023/10/07 02:18:20;;;;;;;4.47;2.40;;;;;;;15.68;43.49;101793.22;5035377;28;20133;-82
2023/10/07 02:20:52;;;;;;;5.03;2.40;;;;;;;15.69;43.34;101791.34;5036788;28;20346;-81
2023/10/07 02:23:22;;;;;;;;;;;;;;;15.38;43.87;101791.47;5038870;28;20160;-82
2023/10/07 02:25:52;;;;;;;6.60;2.47;;;;;;;15.62;43.71;101793.81;5038286;28;20007;-81
2023/10/07 02:28:22;;;;;;;5.68;2.72;;;;;;;15.65;43.31;101806.47;5038648;28;20037;-83
2023/10/07 02:31:00;;;;;;;3.85;2.50;;;;;;;15.63;43.85;101806.59;5038823;28;20069;-82
2023/10/07 02:33:30;;;;;;;4.78;2.65;;;;;;;15.63;43.99;101819.53;5047154;28;20128;-81
2023/10/07 02:35:59;;;;;;;7.40;3.08;;;;;;;15.61;43.47;101829.81;5047399;28;20102;-81
2023/10/07 02:38:36;;;;;;;6.50;3.13;;;;;;;15.59;43.82;101823.59;5048977;28;20050;-81
2023/10/07 02:41:16;;;;;;;4.90;2.60;;;;;;;15.60;43.89;101819.81;5047997;28;20064;-83
2023/10/07 02:43:48;;;;;;;4.90;2.50;;;;;;;15.56;43.68;101812.84;5041656;28;20048;-83
2023/10/07 02:49:09;;;;;;;5.40;2.55;;;;;;;15.54;44.36;101803.84;5029030;28;20491;-81
2023/10/07 02:51:48;;;;;;;7.30;3.20;;;;;;;15.56;44.22;101808.19;5040181;28;20408;-82
2023/10/07 02:54:17;;;;;;;5.82;3.05;;;;;;;15.55;44.27;101802.81;5048648;28;20068;-82
2023/10/07 02:56:56;;;;;;;5.13;2.80;;;;;;;15.57;44.22;101809.94;5055002;28;20072;-82
2023/10/07 02:59:27;;;;;;;4.90;2.50;;;;;;;15.54;44.60;101799.19;5037825;28;20045;-80
2023/10/07 03:02:21;;;;;;;;;;;;;;;15.27;44.76;101799.84;5025361;28;20068;-81
2023/10/07 03:05:12;;;;;;;6.47;2.58;;;;;;;15.53;44.50;101805.72;5047434;28;19928;-82
2023/10/07 03:07:42;;;;;;;5.18;2.63;;;;;;;15.53;44.08;101811.22;5037225;28;20045;-82
2023/10/07 03:10:18;;;;;;;5.85;2.90;;;;;;;15.54;44.08;101812.97;5058469;28;20535;-82
2023/10/07 03:12:56;;;;;;;6.18;3.20;;;;;;;15.54;44.38;101804.69;5040869;28;21228;-82
2023/10/07 03:15:39;;;;;;;6.78;3.05;;;;;;;15.51;44.24;101807.75;5037217;28;20052;-82
2023/10/07 03:18:20;;;;;;;5.47;3.13;;;;;;;15.49;44.45;101813.44;5041522;28;20056;-83
2023/10/07 03:21:00;;;;;;;6.20;2.88;;;;;;;15.50;44.25;101795.00;5041613;28;20045;-83
2023/10/07 03:23:33;;;;;;;5.53;2.90;;;;;;;15.47;44.84;101795.25;5057804;28;20051;-81
2023/10/07 03:26:07;;;;;;;5.22;3.10;;;;;;;15.49;44.79;101799.63;5056057;28;20061;-82
2023/10/07 03:28:46;;;;;;;6.15;3.33;;;;;;;15.49;44.74;101805.16;5039296;28;20091;-82
2023/10/07 03:31:18;;;;;;;7.75;3.78;;;;;;;15.48;44.62;101808.03;5037958;28;20476;-84
2023/10/07 03:33:51;;;;;;;7.03;3.30;;;;;;;15.46;44.76;101801.78;5040505;28;20061;-83
2023/10/07 03:36:41;;;;;;;5.47;3.10;;;;;;;15.50;45.24;101806.03;5042002;28;20118;-82
2023/10/07 03:39:16;;;;;;;6.45;3.00;;;;;;;15.48;44.72;101813.56;5041072;28;20099;-82
2023/10/07 03:41:48;;;;;;;6.18;3.25;;;;;;;15.48;45.28;101803.41;5041029;28;20059;-83
2023/10/07 03:44:18;;;;;;;6.78;3.30;;;;;;;15.51;44.95;101802.22;5042941;28;20576;-83
2023/10/07 03:46:48;;;;;;;5.75;3.22;;;;;;;15.51;44.99;101805.84;5043986;28;20057;-81
2023/10/07 03:49:21;;;;;;;6.03;3.33;;;;;;;15.50;44.93;101808.78;5044343;28;20041;-82
2023/10/07 03:51:59;;;;;;;7.43;3.65;;;;;;;15.51;45.56;101802.22;5042283;28;20041;-82
2023/10/07 03:54:29;;;;;;;6.43;3.47;;;;;;;15.49;45.44;101807.03;5056211;28;20045;-82
2023/10/07 03:57:00;;;;;;;4.90;3.28;;;;;;;15.51;45.48;101802.22;5038752;28;20736;-83
2023/10/07 03:59:32;;;;;;;5.68;2.90;;;;;;;15.54;45.31;101798.31;5053475;28;20079;-82
2023/10/07 04:02:00;;;;;;;7.50;3.37;;;;;;;15.51;45.62;101796.69;5057454;28;20430;-81
2023/10/07 04:04:29;;;;;;;7.20;3.42;;;;;;;15.53;45.45;101797.44;5042771;28;20042;-83
2023/10/07 04:07:00;;;;;;;7.80;3.70;;;;;;;15.56;45.35;101799.03;5038396;28;20072;-83
2023/10/07 04:09:33;;;;;;;6.15;3.13;;;;;;;15.55;45.55;101798.19;5044019;28;20183;-81
2023/10/07 04:12:03;;;;;;;6.95;3.00;;;;;;;15.55;45.60;101792.66;5048683;28;20096;-82
2023/10/07 04:14:35;;;;;;;6.22;3.22;;;;;;;15.59;45.90;101793.25;5048249;28;20049;-82
2023/10/07 04:17:11;;;;;;;6.38;3.47;;;;;;;15.55;45.84;101792.66;5050029;28;20135;-80
2023/10/07 04:19:42;;;;;;;6.13;3.40;;;;;;;15.57;46.04;101801.66;5057947;28;20075;-82
2023/10/07 04:22:11;;;;;;;5.72;3.13;;;;;;;15.59;45.88;101804.28;5056459;28;20033;-83
2023/10/07 04:24:44;;;;;;;6.80;3.65;;;;;;;15.58;45.83;101808.06;5039810;28;20063;-82
2023/10/07 04:27:18;;;;;;;5.70;3.13;;;;;;;15.59;46.24;101799.63;5054766;28;20075;-81
2023/10/07 04:29:51;;;;;;;5.57;3.47;;;;;;;15.61;46.16;101796.72;5038308;28;20045;-82
2023/10/07 04:32:21;;;;;;;6.65;3.28;;;;;;;15.59;45.71;101790.50;5038598;28;20706;-82
2023/10/07 04:35:07;;;;;;;6.40;3.20;;;;;;;15.61;46.13;101782.91;5055544;28;20112;-83
2023/10/07 04:37:51;;;;;;;7.28;3.42;;;;;;;15.60;46.03;101782.03;5056351;28;20046;-82
2023/10/07 04:45:53;;;;;;;5.90;2.67;;;;;;;15.61;46.09;101772.75;5036072;28;20050;-82
2023/10/07 04:48:24;;;;;;;6.82;3.35;;;;;;;15.63;46.02;101784.53;5040474;28;20060;-82
2023/10/07 04:51:03;;;;;;;6.75;3.03;;;;;;;15.63;46.26;101776.25;5037760;28;20118;-81
2023/10/07 04:53:38;;;;;;;5.18;3.05;;;;;;;15.62;46.22;101779.16;5041358;28;20049;-80
2023/10/07 04:56:18;;;;;;;5.93;3.40;;;;;;;15.68;46.91;101778.56;5039404;28;20056;-83
2023/10/07 04:58:45;;;;;;;5.43;3.10;;;;;;;15.64;46.17;101769.72;5039363;28;20060;-83
2023/10/07 05:01:30;;;;;;;6.65;3.10;;;;;;;15.67;46.68;101765.81;5039201;28;20038;-82
2023/10/07 05:04:04;;;;;;;6.13;3.30;;;;;;;15.65;46.26;101774.22;5054855;28;20048;-83
2023/10/07 05:06:34;;;;;;;6.32;3.63;;;;;;;15.61;46.52;101758.97;5053903;28;20058;-83
2023/10/07 05:09:03;;;;;;;6.03;3.30;;;;;;;15.67;46.32;101765.81;5039463;28;20045;-83
2023/10/07 05:11:31;;;;;;;6.75;3.47;;;;;;;15.66;46.74;101758.53;5039767;28;20138;-83
2023/10/07 05:13:59;;;;;;;6.05;3.38;;;;;;;15.67;46.54;101768.56;5057825;28;20404;-84
2023/10/07 05:16:28;;;;;;;6.30;3.22;;;;;;;15.69;46.51;101769.25;5056373;28;20052;-83
2023/10/07 05:18:56;;;;;;;4.95;3.15;;;;;;;15.66;46.46;101762.16;5039357;28;20068;-84
2023/10/07 05:21:26;;;;;;;5.03;3.17;;;;;;;15.67;46.33;101752.00;5041386;28;20068;-83
2023/10/07 05:23:55;;;;;;;6.25;2.78;;;;;;;15.67;46.94;101757.53;5054537;28;20121;-83
2023/10/07 05:26:23;;;;;;;5.55;2.97;;;;;;;15.66;46.45;101762.16;5040544;28;20053;-85
2023/10/07 05:28:51;;;;;;;7.95;3.40;;;;;;;15.68;46.56;101760.09;5055471;28;20123;-83
2023/10/07 05:31:20;;;;;;;5.97;2.95;;;;;;;15.66;47.01;101762.16;5039115;28;20033;-83
2023/10/07 05:33:49;;;;;;;5.60;3.08;;;;;;;15.70;46.67;101765.50;5056963;28;20557;-84
2023/10/07 05:36:21;;;;;;;7.32;3.17;;;;;;;15.69;47.08;101760.97;5037907;28;20059;-86
2023/10/07 05:38:50;;;;;;;5.75;3.00;;;;;;;15.69;47.24;101755.47;5050622;28;20571;-85
2023/10/07 05:41:18;;;;;;;5.55;3.00;;;;;;;15.70;46.94;101759.97;5030744;28;20138;-85
2023/10/07 05:43:50;;;;;;;5.57;3.08;;;;;;;15.71;47.23;101762.59;5032433;28;20060;-83
2023/10/07 05:46:19;;;;;;;5.82;3.30;;;;;;;15.71;47.24;101762.59;5053730;28;20227;-83
2023/10/07 05:48:51;;;;;;;5.43;3.15;;;;;;;15.75;46.95;101768.72;5035366;28;20101;-85
2023/10/07 05:51:20;;;;;;;6.95;3.00;;;;;;;15.70;46.99;101765.50;5037924;28;20063;-83
2023/10/07 05:53:48;;;;;;;5.90;3.13;;;;;;;15.73;46.80;101773.50;5060726;28;20049;-83
2023/10/07 05:56:17;;;;;;;4.97;2.90;;;;;;;15.70;47.23;101776.53;5046174;28;20045;-84
2023/10/07 05:58:46;;;;;;;5.88;3.17;;;;;;;15.72;46.74;101780.03;5038774;28;20052;-84
2023/10/07 06:01:16;;;;;;;5.28;3.05;;;;;;;15.72;46.85;101780.03;5047712;28;20056;-85
2023/10/07 06:03:46;;;;;;;6.30;3.03;;;;;;;15.71;47.01;101787.44;5033692;28;20128;-85
2023/10/07 06:06:20;;;;;;;6.18;2.92;;;;;;;15.76;47.51;101798.03;5029050;28;20076;-85
2023/10/07 06:08:53;;;;;;;6.05;2.85;;;;;;;15.71;47.35;101786.56;5029580;28;20057;-84
2023/10/07 06:11:23;;;;;;;5.28;2.88;;;;;;;15.72;47.17;101799.34;5031158;28;20063;-86
2023/10/07 06:13:51;;;;;;;5.15;3.13;;;;;;;15.72;47.32;101802.09;5034500;28;20057;-85
2023/10/07 06:16:19;;;;;;;5.97;2.90;;;;;;;15.72;47.45;101804.88;5034782;28;20076;-85
2023/10/07 06:18:49;;;;;;;5.65;2.58;;;;;;;15.73;47.24;101815.75;5034183;28;20101;-85
2023/10/07 06:21:27;;;;;;;6.80;3.10;;;;;;;15.74;47.27;101800.94;5034575;28;20064;-83
2023/10/07 06:23:58;;;;;;;5.28;3.10;;;;;;;15.73;47.52;101806.59;5036643;28;20045;-83
2023/10/07 06:26:30;;;;;;;4.93;2.75;;;;;;;15.73;47.56;101807.47;5035740;28;20548;-85
2023/10/07 06:29:05;;;;;;;7.20;3.22;;;;;;;15.72;47.67;101805.72;5034754;28;20056;-84
2023/10/07 06:31:36;;;;;;;7.03;3.03;;;;;;;15.73;47.37;101807.47;5029506;28;20048;-84
2023/10/07 06:34:12;;;;;;;4.07;2.58;;;;;;;15.75;47.40;101810.09;5037396;28;20049;-85
2023/10/07 06:36:42;;;;;;;5.40;2.53;;;;;;;15.76;47.57;101811.81;5031561;28;20064;-84
2023/10/07 06:39:10;;;;;;;6.13;2.90;;;;;;;15.77;47.82;101810.81;5036036;28;20060;-84
2023/10/07 06:41:42;;;;;;;5.53;2.80;;;;;;;15.75;47.33;101805.47;5032919;28;20056;-85
2023/10/07 06:44:11;;;;;;;4.88;2.53;;;;;;;15.74;47.47;101798.19;5040505;28;20132;-84
2023/10/07 06:46:41;;;;;;;5.55;2.90;;;;;;;15.76;47.63;101806.31;5031853;28;20045;-85
2023/10/07 06:49:16;;;;;;;6.10;3.00;;;;;;;15.78;47.64;101818.94;5033954;28;20480;-85
2023/10/07 06:51:50;;;;;;;6.07;2.63;;;;;;;15.81;47.55;101815.03;5051269;28;20056;-84
2023/10/07 06:54:18;;;;;;;4.38;2.47;;;;;;;15.79;47.51;101812.41;5034488;28;20838;-83
2023/10/07 06:56:49;;;;;;;6.95;2.90;;;;;;;15.79;47.45;101817.06;5028087;28;20045;-83
2023/10/07 06:59:17;;;;;;;4.80;2.70;;;;;;;15.81;47.41;101817.78;5032641;28;20091;-83
2023/10/07 07:01:53;;;;;;;4.95;2.70;;;;;;;15.82;47.54;101820.41;5039468;28;20061;-83
2023/10/07 07:04:23;;;;;;;4.90;2.83;;;;;;;15.81;47.28;101820.56;5051708;28;20107;-84
2023/10/07 07:07:10;;;;;;;7.03;2.70;;;;;;;15.82;47.66;101823.19;5047480;28;20433;-85
2023/10/07 07:09:51;;;;;;;5.35;2.63;;;;;;;15.82;47.51;101828.69;5031547;28;20061;-84
2023/10/07 07:12:22;;;;;;;5.63;2.60;;;;;;;15.83;47.57;101833.22;5050840;28;20140;-84
2023/10/07 07:14:52;;;;;;;6.22;2.65;;;;;;;15.84;48.10;101843.19;5044097;28;20057;-83
2023/10/07 07:17:35;;;;;;;3.88;2.25;;;;;;;15.86;47.84;101838.41;5039733;28;20049;-85
2023/10/07 07:22:52;;;;;;;6.68;3.00;;;;;;;15.88;48.22;101838.28;5006803;28;20081;-85
2023/10/07 07:25:29;;;;;;;4.53;2.47;;;;;;;15.90;47.87;101836.25;5045497;28;20038;-86
2023/10/07 07:28:01;;;;;;;4.53;2.42;;;;;;;15.91;48.16;101837.13;5035563;28;20123;-84
2023/10/07 07:30:30;;;;;;;4.40;2.47;;;;;;;15.93;48.36;101830.41;5055578;28;20440;-85
2023/10/07 07:33:06;;;;;;;5.00;2.33;;;;;;;15.97;48.03;101831.00;5049659;28;20096;-84
2023/10/07 07:35:40;;;;;;;5.05;2.63;;;;;;;15.98;47.87;101830.00;5069568;28;20045;-83
2023/10/07 07:41:09;;;;;;;4.38;2.33;;;;;;;16.02;48.31;101837.81;5015066;28;20045;-86
2023/10/07 07:43:38;;;;;;;5.03;2.45;;;;;;;16.05;48.20;101836.66;5048232;28;20044;-84
2023/10/07 07:48:50;;;;;;;6.32;2.53;;;;;;;16.07;48.12;101829.13;5033486;28;20057;-86
2023/10/07 07:51:20;;;;;;;5.30;2.38;;;;;;;16.10;48.03;101837.09;5032568;28;20770;-84
2023/10/07 07:53:50;;;;;;;4.57;2.35;;;;;;;16.13;48.23;101837.69;5054874;28;20049;-83
2023/10/07 07:56:20;;;;;;;5.95;2.70;;;;;;;16.15;47.99;101843.06;5035599;28;20464;-85
2023/10/07 07:58:48;;;;;;;4.43;2.20;;;;;;;16.15;48.31;101838.41;5033314;28;20052;-85
2023/10/07 08:01:18;;;;;;;7.43;2.80;;;;;;;16.17;48.20;101846.56;5047445;28;20049;-84
2023/10/07 08:03:47;;;;;;;4.68;2.50;;;;;;;16.17;48.13;101844.66;5033917;28;20514;-84
2023/10/07 08:06:20;;;;;;;4.38;2.78;;;;;;;16.19;47.85;101845.41;5030026;28;20726;-85
2023/10/07 08:08:53;;;;;;;6.45;2.53;;;;;;;16.23;47.87;101854.28;5045942;28;20453;-86
2023/10/07 08:11:22;;;;;;;4.72;2.40;;;;;;;16.20;47.92;101844.38;5044823;28;20514;-84
2023/10/07 08:13:50;;;;;;;4.15;2.38;;;;;;;16.23;48.23;101843.22;5030600;28;20037;-84
2023/10/07 08:16:19;;;;;;;4.22;2.20;;;;;;;16.24;47.92;101836.69;5030409;28;20412;-86
2023/10/07 08:18:54;;;;;;;4.57;2.35;;;;;;;16.27;48.12;101834.50;5036866;28;20053;-85
2023/10/07 08:21:29;;;;;;;5.22;2.30;;;;;;;16.28;47.86;101849.19;5029982;28;20052;-84
2023/10/07 08:24:01;;;;;;;4.43;2.20;;;;;;;16.30;48.10;101838.84;5033110;28;20523;-84
2023/10/07 08:26:34;;;;;;;4.97;2.40;;;;;;;16.30;48.30;101833.34;5028977;28;20048;-85
2023/10/07 08:29:02;;;;;;;;;;;;;;;16.02;49.10;101846.09;5046936;28;20123;-85
2023/10/07 08:31:39;;;;;;;5.07;2.20;;;;;;;16.26;48.18;101841.03;5031169;28;20037;-83
2023/10/07 08:34:11;;;;;;;5.05;2.45;;;;;;;16.33;47.92;101844.06;5054021;28;20099;-84
2023/10/07 08:36:43;;;;;;;;;;;;;;;16.06;49.01;101841.19;5034459;28;20137;-83
2023/10/07 08:39:17;;;;;;;3.58;1.90;;;;;;;16.32;48.16;101831.31;5029893;28;19929;-84
2023/10/07 08:41:52;;;;;;;3.53;2.00;;;;;;;16.33;47.85;101833.00;5032438;28;20504;-85
2023/10/07 08:44:29;;;;;;;5.53;2.45;;;;;;;16.37;48.15;101828.94;5034752;28;20603;-84
2023/10/07 08:47:04;;;;;;;5.38;2.35;;;;;;;16.38;48.52;101832.59;5031783;28;20049;-85
2023/10/07 08:49:35;;;;;;;6.80;3.00;;;;;;;16.41;48.32;101840.59;5034161;28;20064;-86
2023/10/07 08:52:08;;;;;;;5.35;2.45;;;;;;;16.39;48.62;101842.63;5037607;28;20048;-84
2023/10/07 08:54:44;;;;;;;4.57;2.60;;;;;;;16.43;48.50;101839.41;5035070;28;20054;-85
2023/10/07 08:57:19;;;;;;;5.70;2.60;;;;;;;16.48;48.66;101836.22;5036694;28;20064;-84
2023/10/07 08:59:49;;;;;;;6.72;2.58;;;;;;;16.46;48.42;101841.88;5035396;28;20060;-84
2023/10/07 09:02:26;;;;;;;7.13;2.67;;;;;;;16.51;48.39;101842.28;5033373;28;20075;-85
2023/10/07 09:04:57;;;;;;;6.43;2.47;;;;;;;16.53;48.67;101839.38;5053014;28;20477;-82
2023/10/07 09:07:32;;;;;;;4.78;2.20;;;;;;;16.58;49.11;101842.56;5029604;28;20068;-84
2023/10/07 09:10:14;;;;;;;5.30;2.50;;;;;;;16.66;49.10;101839.06;5029044;28;20072;-86
2023/10/07 09:12:48;;;;;;;6.72;2.60;;;;;;;16.68;49.43;101848.94;5042156;28;20098;-83
2023/10/07 09:15:25;;;;;;;6.10;2.60;;;;;;;16.77;48.97;101848.03;5065678;28;20045;-83
2023/10/07 09:18:02;;;;;;;3.92;2.42;;;;;;;16.88;48.66;101830.38;5046573;28;20052;-83
2023/10/07 09:20:31;;;;;;;5.30;2.58;;;;;;;16.91;48.75;101832.81;5034638;28;20054;-86
2023/10/07 09:23:06;;;;;;;4.95;2.33;;;;;;;17.00;48.86;101837.47;5028525;28;20052;-84
2023/10/07 09:25:36;;;;;;;4.75;2.80;;;;;;;17.11;48.52;101819.81;5028683;28;20676;-84
2023/10/07 09:28:07;;;;;;;4.43;2.50;;;;;;;17.17;48.91;101821.97;5029868;28;20057;-84
2023/10/07 09:30:44;;;;;;;5.15;2.72;;;;;;;17.24;48.56;101820.31;5028899;28;20053;-85
2023/10/07 09:33:17;;;;;;;4.90;2.35;;;;;;;17.34;48.52;101826.66;5030415;28;20477;-83
2023/10/07 09:36:00;;;;;;;4.68;2.45;;;;;;;17.40;48.73;101823.31;5040438;28;20469;-86
2023/10/07 09:38:33;;;;;;;5.50;2.35;;;;;;;17.48;48.79;101825.28;5036982;28;20064;-85
2023/10/07 09:41:12;;;;;;;5.43;2.45;;;;;;;17.61;48.62;101821.09;5043932;28;20067;-85
2023/10/07 09:43:47;;;;;;;5.70;2.35;;;;;;;17.69;48.43;101817.53;5030320;28;20055;-87
2023/10/07 09:46:24;;;;;;;4.43;2.60;;;;;;;17.79;48.43;101829.44;5028187;28;20517;-84
2023/10/07 09:49:06;;;;;;;4.50;2.50;;;;;;;17.89;48.10;101827.47;5030409;28;20049;-84
2023/10/07 09:51:41;;;;;;;5.10;2.30;;;;;;;18.00;48.35;101831.88;5026737;28;20048;-85
2023/10/07 09:54:23;;;;;;;4.72;2.47;;;;;;;18.12;47.54;101823.19;5029049;28;20084;-85
2023/10/07 09:57:19;;;;;;;5.65;2.40;;;;;;;18.21;47.52;101826.88;5025241;28;20045;-85
2023/10/07 10:00:37;;;;;;;5.10;2.38;;;;;;;18.31;47.03;101819.31;5045013;28;20062;-83
2023/10/07 10:03:14;;;;;;;5.85;2.35;;;;;;;18.42;47.06;101816.28;5027765;28;20054;-85
2023/10/07 10:05:58;;;;;;;4.03;2.13;;;;;;;18.52;47.10;101821.75;5028458;28;20513;-85
2023/10/07 10:08:55;;;;;;;4.03;2.30;;;;;;;18.60;46.67;101813.50;5030865;28;20138;-85
2023/10/07 10:11:31;;;;;;;4.35;1.98;;;;;;;18.66;47.11;101817.50;5031032;28;20057;-85
2023/10/07 10:14:26;;;;;;;5.53;2.30;;;;;;;18.77;46.93;101812.56;5031098;28;20627;-85
2023/10/07 10:16:54;;;;;;;5.03;2.40;;;;;;;18.84;46.92;101808.09;5045752;28;20132;-85
2023/10/07 10:19:28;;;;;;;5.50;2.30;;;;;;;18.97;46.44;101823.38;5032205;28;20582;-84
2023/10/07 10:22:10;;;;;;;4.45;2.00;;;;;;;19.05;45.78;101815.13;5030795;28;20469;-85
2023/10/07 10:24:42;;;;;;;5.18;2.38;;;;;;;19.09;46.31;101822.06;5032043;28;20052;-85
2023/10/07 10:27:13;;;;;;;5.35;2.13;;;;;;;19.17;46.34;101822.09;5028900;28;20048;-85
2023/10/07 10:29:52;;;;;;;5.90;2.22;;;;;;;19.27;45.73;101814.53;5032267;28;20069;-86
2023/10/07 10:32:28;;;;;;;6.70;2.38;;;;;;;19.35;45.63;101822.03;5034247;28;20041;-86
2023/10/07 10:35:01;;;;;;;5.45;2.22;;;;;;;19.39;45.26;101796.53;5049388;28;20058;-85
2023/10/07 10:37:30;;;;;;;4.53;2.20;;;;;;;19.46;45.60;101805.91;5024704;28;20097;-80
2023/10/07 10:40:05;;;;;;;5.00;2.22;;;;;;;19.52;45.15;101807.16;5027262;28;20076;-80
2023/10/07 10:42:41;;;;;;;5.28;2.30;;;;;;;19.62;44.41;101799.53;5022708;28;20045;-78
2023/10/07 10:45:18;;;;;;;4.30;2.15;;;;;;;19.69;44.44;101805.28;5022975;28;20049;-78
2023/10/07 10:47:50;;;;;;;5.07;2.00;;;;;;;19.72;44.71;101802.13;5040313;28;20060;-79
2023/10/07 10:50:19;;;;;;;3.92;1.90;;;;;;;19.78;44.70;101809.81;5027071;28;20119;-78
2023/10/07 10:52:48;;;;;;;5.13;2.00;;;;;;;19.84;44.74;101798.88;5031406;28;20058;-80
2023/10/07 10:55:17;;;;;;;5.93;2.05;;;;;;;19.90;44.25;101802.84;5042385;28;20057;-80
2023/10/07 10:57:45;;;;;;;5.15;2.45;;;;;;;19.93;44.27;101788.66;5052955;28;20084;-80
2023/10/07 11:00:21;;;;;;;3.85;2.13;;;;;;;20.01;43.72;101799.78;5036196;28;20072;-81
2023/10/07 11:02:51;;;;;;;4.22;2.30;;;;;;;20.04;43.95;101795.78;5050117;28;20051;-79
2023/10/07 11:05:20;;;;;;;4.05;2.08;;;;;;;20.08;43.77;101800.81;5023037;28;20050;-80
2023/10/07 11:07:50;;;;;;;5.05;2.15;;;;;;;20.13;43.75;101794.72;5027068;28;20685;-78
2023/10/07 11:10:22;;;;;;;5.22;1.98;;;;;;;20.17;43.71;101794.22;5045175;28;20599;-81
2023/10/07 11:12:52;;;;;;;3.42;1.90;;;;;;;20.21;43.69;101801.13;5028956;28;20592;-81
2023/10/07 11:15:25;;;;;;;3.65;1.92;;;;;;;20.28;43.06;101782.72;5028923;28;20048;-79
2023/10/07 11:17:56;;;;;;;4.00;2.03;;;;;;;20.31;43.17;101792.63;5028735;28;20480;-78
2023/10/07 11:20:25;;;;;;;4.38;2.13;;;;;;;20.34;42.89;101790.38;5050528;28;20053;-78
2023/10/07 11:22:54;;;;;;;4.95;1.92;;;;;;;20.38;43.22;101785.31;5049038;28;20045;-78
2023/10/07 11:25:27;;;;;;;4.35;1.90;;;;;;;20.46;42.04;101795.53;5042082;28;20053;-79
2023/10/07 11:27:55;;;;;;;4.63;1.85;;;;;;;20.46;42.70;101784.41;5029406;28;20045;-79
2023/10/07 11:30:24;;;;;;;5.70;1.80;;;;;;;20.54;42.44;101792.75;5034481;28;20064;-79
2023/10/07 11:32:53;;;;;;;4.03;2.00;;;;;;;20.55;42.38;101787.00;5053079;28;20061;-79
2023/10/07 11:35:27;;;;;;;3.15;1.80;;;;;;;20.60;42.39;101786.53;5031765;28;20076;-77
2023/10/07 11:37:58;;;;;;;4.32;1.88;;;;;;;20.65;42.17;101786.84;5037445;28;20343;-78
2023/10/07 11:40:27;;;;;;;3.85;2.00;;;;;;;20.69;42.04;101783.56;5028937;28;20127;-77
2023/10/07 11:42:56;;;;;;;6.07;2.00;;;;;;;20.73;41.97;101770.13;5025323;28;20477;-77
2023/10/07 11:45:26;;;;;;;4.10;2.05;;;;;;;20.78;41.79;101774.09;5039469;28;20159;-77
2023/10/07 11:47:57;;;;;;;3.95;2.00;;;;;;;20.80;41.52;101779.50;5043786;28;20582;-77
2023/10/07 11:50:27;;;;;;;6.88;2.30;;;;;;;20.85;41.71;101771.50;5042917;28;20153;-77
2023/10/07 11:52:55;;;;;;;5.28;1.92;;;;;;;20.88;41.35;101761.91;5025430;28;20049;-77
2023/10/07 11:55:23;;;;;;;4.43;2.13;;;;;;;20.92;41.26;101760.50;5026777;28;20049;-77
2023/10/07 11:57:51;;;;;;;4.03;1.80;;;;;;;20.95;40.92;101760.13;5041217;28;20049;-77
2023/10/07 12:00:27;;;;;;;4.00;1.73;;;;;;;20.98;41.35;101762.56;5025704;28;20633;-77
2023/10/07 12:02:57;;;;;;;4.63;1.70;;;;;;;21.03;41.10;101763.72;5028162;28;20049;-78
2023/10/07 12:05:27;;;;;;;3.75;2.10;;;;;;;21.05;41.35;101766.34;5045471;28;20057;-77
2023/10/07 12:07:59;;;;;;;4.70;1.95;;;;;;;21.08;40.83;101752.94;5033745;28;20055;-78
2023/10/07 12:10:28;;;;;;;3.65;1.75;;;;;;;21.11;41.00;101758.13;5031804;28;20167;-78